sensor_id;sensor_type;location;lat;lon;timestamp;P1;durP1;ratioP1;P2;durP2;ratioP2
37367;SDS011;23240;43.210;27.910;2023-02-03T00:00:55;2.95;;;0.95;;
37367;SDS011;23240;43.210;27.910;2023-02-03T00:03:20;5.70;;;1.27;;
37367;SDS011;23240;43.210;27.910;2023-02-03T00:05:45;3.83;;;1.08;;
37367;SDS011;23240;43.210;27.910;2023-02-03T00:08:11;5.53;;;1.38;;
37367;SDS011;23240;43.210;27.910;2023-02-03T00:10:38;1.73;;;1.35;;
37367;SDS011;23240;43.210;27.910;2023-02-03T00:13:04;2.50;;;1.52;;
37367;SDS011;23240;43.210;27.910;2023-02-03T00:15:31;0.88;;;0.85;;
37367;SDS011;23240;43.210;27.910;2023-02-03T00:17:56;3.53;;;1.35;;
37367;SDS011;23240;43.210;27.910;2023-02-03T00:20:22;6.57;;;1.42;;
37367;SDS011;23240;43.210;27.910;2023-02-03T00:22:47;5.28;;;2.30;;
37367;SDS011;23240;43.210;27.910;2023-02-03T00:25:13;2.85;;;1.38;;
37367;SDS011;23240;43.210;27.910;2023-02-03T00:27:39;0.75;;;0.75;;
37367;SDS011;23240;43.210;27.910;2023-02-03T00:30:04;2.10;;;1.27;;
37367;SDS011;23240;43.210;27.910;2023-02-03T00:32:30;1.10;;;1.02;;
37367;SDS011;23240;43.210;27.910;2023-02-03T00:34:56;2.70;;;1.75;;
37367;SDS011;23240;43.210;27.910;2023-02-03T00:37:21;0.90;;;0.73;;
37367;SDS011;23240;43.210;27.910;2023-02-03T00:39:47;0.95;;;0.88;;
37367;SDS011;23240;43.210;27.910;2023-02-03T00:42:13;4.30;;;1.20;;
37367;SDS011;23240;43.210;27.910;2023-02-03T00:44:39;6.50;;;1.48;;
37367;SDS011;23240;43.210;27.910;2023-02-03T00:47:04;0.82;;;0.80;;
37367;SDS011;23240;43.210;27.910;2023-02-03T00:49:30;0.93;;;0.93;;
37367;SDS011;23240;43.210;27.910;2023-02-03T00:51:56;0.45;;;0.43;;
37367;SDS011;23240;43.210;27.910;2023-02-03T00:54:21;1.48;;;1.23;;
37367;SDS011;23240;43.210;27.910;2023-02-03T00:56:47;2.10;;;1.17;;
37367;SDS011;23240;43.210;27.910;2023-02-03T00:59:12;3.28;;;2.08;;
37367;SDS011;23240;43.210;27.910;2023-02-03T01:01:43;2.17;;;1.65;;
37367;SDS011;23240;43.210;27.910;2023-02-03T01:04:08;1.80;;;1.13;;
37367;SDS011;23240;43.210;27.910;2023-02-03T01:06:34;2.30;;;1.50;;
37367;SDS011;23240;43.210;27.910;2023-02-03T01:09:02;1.90;;;1.17;;
37367;SDS011;23240;43.210;27.910;2023-02-03T01:11:28;1.67;;;1.50;;
37367;SDS011;23240;43.210;27.910;2023-02-03T01:13:54;1.30;;;1.20;;
37367;SDS011;23240;43.210;27.910;2023-02-03T01:16:21;0.70;;;0.70;;
37367;SDS011;23240;43.210;27.910;2023-02-03T01:18:48;2.15;;;1.17;;
37367;SDS011;23240;43.210;27.910;2023-02-03T01:21:18;1.80;;;1.25;;
37367;SDS011;23240;43.210;27.910;2023-02-03T01:23:45;5.70;;;1.73;;
37367;SDS011;23240;43.210;27.910;2023-02-03T01:26:12;1.75;;;0.73;;
37367;SDS011;23240;43.210;27.910;2023-02-03T01:28:39;1.58;;;1.20;;
37367;SDS011;23240;43.210;27.910;2023-02-03T01:31:16;2.83;;;1.23;;
37367;SDS011;23240;43.210;27.910;2023-02-03T01:33:44;2.47;;;1.60;;
37367;SDS011;23240;43.210;27.910;2023-02-03T01:36:12;1.83;;;1.42;;
37367;SDS011;23240;43.210;27.910;2023-02-03T01:38:39;4.80;;;1.45;;
37367;SDS011;23240;43.210;27.910;2023-02-03T01:41:06;1.45;;;1.15;;
37367;SDS011;23240;43.210;27.910;2023-02-03T01:43:37;1.50;;;1.38;;
37367;SDS011;23240;43.210;27.910;2023-02-03T01:46:49;2.22;;;1.27;;
37367;SDS011;23240;43.210;27.910;2023-02-03T01:48:50;7.65;;;1.95;;
37367;SDS011;23240;43.210;27.910;2023-02-03T01:51:19;1.35;;;0.77;;
37367;SDS011;23240;43.210;27.910;2023-02-03T01:53:46;3.35;;;1.30;;
37367;SDS011;23240;43.210;27.910;2023-02-03T01:56:12;3.47;;;1.42;;
37367;SDS011;23240;43.210;27.910;2023-02-03T01:58:38;2.95;;;1.55;;
37367;SDS011;23240;43.210;27.910;2023-02-03T02:01:06;2.45;;;1.30;;
37367;SDS011;23240;43.210;27.910;2023-02-03T02:03:41;5.10;;;1.48;;
37367;SDS011;23240;43.210;27.910;2023-02-03T02:06:14;1.90;;;1.38;;
37367;SDS011;23240;43.210;27.910;2023-02-03T02:08:40;3.00;;;1.45;;
37367;SDS011;23240;43.210;27.910;2023-02-03T02:11:08;3.08;;;0.93;;
37367;SDS011;23240;43.210;27.910;2023-02-03T02:13:34;2.00;;;1.17;;
37367;SDS011;23240;43.210;27.910;2023-02-03T02:22:29;2.88;;;1.90;;
37367;SDS011;23240;43.210;27.910;2023-02-03T02:25:57;4.05;;;1.85;;
37367;SDS011;23240;43.210;27.910;2023-02-03T02:36:46;5.00;;;1.77;;
37367;SDS011;23240;43.210;27.910;2023-02-03T02:39:18;3.10;;;1.73;;
37367;SDS011;23240;43.210;27.910;2023-02-03T02:41:57;5.28;;;2.15;;
37367;SDS011;23240;43.210;27.910;2023-02-03T02:44:34;3.20;;;1.10;;
37367;SDS011;23240;43.210;27.910;2023-02-03T02:47:06;1.85;;;1.02;;
37367;SDS011;23240;43.210;27.910;2023-02-03T02:49:46;3.15;;;1.17;;
37367;SDS011;23240;43.210;27.910;2023-02-03T02:52:23;3.63;;;1.67;;
37367;SDS011;23240;43.210;27.910;2023-02-03T02:54:54;0.90;;;0.90;;
37367;SDS011;23240;43.210;27.910;2023-02-03T02:57:22;8.07;;;2.53;;
37367;SDS011;23240;43.210;27.910;2023-02-03T02:59:50;3.17;;;0.95;;
37367;SDS011;23240;43.210;27.910;2023-02-03T03:02:17;3.03;;;1.70;;
37367;SDS011;23240;43.210;27.910;2023-02-03T03:04:43;5.63;;;2.33;;
37367;SDS011;23240;43.210;27.910;2023-02-03T03:07:13;1.75;;;1.33;;
37367;SDS011;23240;43.210;27.910;2023-02-03T03:09:46;2.75;;;1.58;;
37367;SDS011;23240;43.210;27.910;2023-02-03T03:14:47;2.70;;;1.30;;
37367;SDS011;23240;43.210;27.910;2023-02-03T03:17:20;4.70;;;1.65;;
37367;SDS011;23240;43.210;27.910;2023-02-03T03:19:55;1.15;;;0.93;;
37367;SDS011;23240;43.210;27.910;2023-02-03T03:22:28;5.57;;;1.63;;
37367;SDS011;23240;43.210;27.910;2023-02-03T03:25:17;8.00;;;2.00;;
37367;SDS011;23240;43.210;27.910;2023-02-03T03:27:47;5.80;;;2.72;;
37367;SDS011;23240;43.210;27.910;2023-02-03T03:30:17;5.32;;;2.05;;
37367;SDS011;23240;43.210;27.910;2023-02-03T03:32:47;2.83;;;1.70;;
37367;SDS011;23240;43.210;27.910;2023-02-03T03:35:14;5.63;;;2.13;;
37367;SDS011;23240;43.210;27.910;2023-02-03T03:37:42;4.60;;;2.45;;
37367;SDS011;23240;43.210;27.910;2023-02-03T03:40:21;1.02;;;0.80;;
37367;SDS011;23240;43.210;27.910;2023-02-03T03:42:56;5.93;;;2.47;;
37367;SDS011;23240;43.210;27.910;2023-02-03T03:47:56;8.10;;;1.85;;
37367;SDS011;23240;43.210;27.910;2023-02-03T03:50:31;3.33;;;1.42;;
37367;SDS011;23240;43.210;27.910;2023-02-03T03:53:01;2.45;;;1.67;;
37367;SDS011;23240;43.210;27.910;2023-02-03T03:55:29;4.47;;;1.63;;
37367;SDS011;23240;43.210;27.910;2023-02-03T03:57:58;4.32;;;2.35;;
37367;SDS011;23240;43.210;27.910;2023-02-03T04:00:24;6.43;;;2.80;;
37367;SDS011;23240;43.210;27.910;2023-02-03T04:02:55;1.63;;;1.52;;
37367;SDS011;23240;43.210;27.910;2023-02-03T04:05:24;5.95;;;2.50;;
37367;SDS011;23240;43.210;27.910;2023-02-03T04:07:51;3.55;;;2.17;;
37367;SDS011;23240;43.210;27.910;2023-02-03T04:10:33;10.55;;;4.00;;
37367;SDS011;23240;43.210;27.910;2023-02-03T04:13:00;5.60;;;2.60;;
37367;SDS011;23240;43.210;27.910;2023-02-03T04:15:26;3.60;;;1.80;;
37367;SDS011;23240;43.210;27.910;2023-02-03T04:17:52;9.77;;;3.63;;
37367;SDS011;23240;43.210;27.910;2023-02-03T04:20:18;4.68;;;2.33;;
37367;SDS011;23240;43.210;27.910;2023-02-03T04:22:45;10.85;;;3.78;;
37367;SDS011;23240;43.210;27.910;2023-02-03T04:25:11;6.82;;;3.53;;
37367;SDS011;23240;43.210;27.910;2023-02-03T04:27:36;5.30;;;3.28;;
37367;SDS011;23240;43.210;27.910;2023-02-03T04:30:02;10.48;;;3.95;;
37367;SDS011;23240;43.210;27.910;2023-02-03T04:32:28;11.93;;;3.95;;
37367;SDS011;23240;43.210;27.910;2023-02-03T04:34:55;11.85;;;5.55;;
37367;SDS011;23240;43.210;27.910;2023-02-03T04:37:21;5.20;;;3.92;;
37367;SDS011;23240;43.210;27.910;2023-02-03T04:39:47;13.77;;;5.15;;
37367;SDS011;23240;43.210;27.910;2023-02-03T04:42:15;11.50;;;4.45;;
37367;SDS011;23240;43.210;27.910;2023-02-03T04:44:40;7.20;;;2.95;;
37367;SDS011;23240;43.210;27.910;2023-02-03T04:47:06;8.35;;;3.10;;
37367;SDS011;23240;43.210;27.910;2023-02-03T04:49:31;7.00;;;2.45;;
37367;SDS011;23240;43.210;27.910;2023-02-03T04:51:57;3.80;;;2.45;;
37367;SDS011;23240;43.210;27.910;2023-02-03T04:54:23;5.30;;;2.28;;
37367;SDS011;23240;43.210;27.910;2023-02-03T04:56:48;3.03;;;2.00;;
37367;SDS011;23240;43.210;27.910;2023-02-03T04:59:14;8.35;;;2.38;;
37367;SDS011;23240;43.210;27.910;2023-02-03T05:01:39;3.22;;;1.40;;
37367;SDS011;23240;43.210;27.910;2023-02-03T05:04:05;4.90;;;1.45;;
37367;SDS011;23240;43.210;27.910;2023-02-03T05:06:30;5.22;;;1.85;;
37367;SDS011;23240;43.210;27.910;2023-02-03T05:08:56;1.30;;;0.93;;
37367;SDS011;23240;43.210;27.910;2023-02-03T05:11:22;1.73;;;1.58;;
37367;SDS011;23240;43.210;27.910;2023-02-03T05:13:48;4.45;;;1.63;;
37367;SDS011;23240;43.210;27.910;2023-02-03T05:16:14;5.43;;;3.83;;
37367;SDS011;23240;43.210;27.910;2023-02-03T05:18:39;3.28;;;1.40;;
37367;SDS011;23240;43.210;27.910;2023-02-03T05:21:05;5.53;;;2.47;;
37367;SDS011;23240;43.210;27.910;2023-02-03T05:23:31;4.32;;;2.60;;
37367;SDS011;23240;43.210;27.910;2023-02-03T05:25:56;3.58;;;1.90;;
37367;SDS011;23240;43.210;27.910;2023-02-03T05:28:22;4.93;;;2.55;;
37367;SDS011;23240;43.210;27.910;2023-02-03T05:30:47;10.38;;;2.65;;
37367;SDS011;23240;43.210;27.910;2023-02-03T05:33:13;6.45;;;2.83;;
37367;SDS011;23240;43.210;27.910;2023-02-03T05:35:38;10.65;;;3.95;;
37367;SDS011;23240;43.210;27.910;2023-02-03T05:38:04;4.82;;;2.17;;
37367;SDS011;23240;43.210;27.910;2023-02-03T05:40:29;5.60;;;2.55;;
37367;SDS011;23240;43.210;27.910;2023-02-03T05:43:14;6.70;;;2.58;;
37367;SDS011;23240;43.210;27.910;2023-02-03T05:45:39;4.95;;;2.03;;
37367;SDS011;23240;43.210;27.910;2023-02-03T05:48:05;6.75;;;2.13;;
37367;SDS011;23240;43.210;27.910;2023-02-03T05:50:37;5.10;;;2.55;;
37367;SDS011;23240;43.210;27.910;2023-02-03T05:53:03;7.20;;;3.15;;
37367;SDS011;23240;43.210;27.910;2023-02-03T05:55:30;10.23;;;2.83;;
37367;SDS011;23240;43.210;27.910;2023-02-03T05:57:56;2.78;;;1.92;;
37367;SDS011;23240;43.210;27.910;2023-02-03T06:00:22;9.55;;;3.70;;
37367;SDS011;23240;43.210;27.910;2023-02-03T06:02:51;12.18;;;3.88;;
37367;SDS011;23240;43.210;27.910;2023-02-03T06:05:21;7.15;;;3.13;;
37367;SDS011;23240;43.210;27.910;2023-02-03T06:07:48;6.25;;;3.20;;
37367;SDS011;23240;43.210;27.910;2023-02-03T06:10:14;8.82;;;3.05;;
37367;SDS011;23240;43.210;27.910;2023-02-03T06:12:40;8.90;;;3.13;;
37367;SDS011;23240;43.210;27.910;2023-02-03T06:15:06;5.32;;;3.08;;
37367;SDS011;23240;43.210;27.910;2023-02-03T06:17:33;7.82;;;3.88;;
37367;SDS011;23240;43.210;27.910;2023-02-03T06:20:00;7.20;;;3.55;;
37367;SDS011;23240;43.210;27.910;2023-02-03T06:22:29;7.15;;;3.60;;
37367;SDS011;23240;43.210;27.910;2023-02-03T06:24:54;9.10;;;2.72;;
37367;SDS011;23240;43.210;27.910;2023-02-03T06:27:20;11.20;;;4.38;;
37367;SDS011;23240;43.210;27.910;2023-02-03T06:29:45;2.70;;;2.15;;
37367;SDS011;23240;43.210;27.910;2023-02-03T06:32:11;7.93;;;3.83;;
37367;SDS011;23240;43.210;27.910;2023-02-03T06:34:36;5.60;;;2.78;;
37367;SDS011;23240;43.210;27.910;2023-02-03T06:37:02;5.35;;;3.05;;
37367;SDS011;23240;43.210;27.910;2023-02-03T06:39:27;4.15;;;1.98;;
37367;SDS011;23240;43.210;27.910;2023-02-03T06:41:53;2.80;;;1.63;;
37367;SDS011;23240;43.210;27.910;2023-02-03T06:44:20;5.45;;;2.50;;
37367;SDS011;23240;43.210;27.910;2023-02-03T06:46:45;3.60;;;2.20;;
37367;SDS011;23240;43.210;27.910;2023-02-03T06:49:11;7.70;;;3.05;;
37367;SDS011;23240;43.210;27.910;2023-02-03T06:51:36;8.15;;;3.25;;
37367;SDS011;23240;43.210;27.910;2023-02-03T06:54:02;3.92;;;2.22;;
37367;SDS011;23240;43.210;27.910;2023-02-03T06:56:29;2.53;;;1.50;;
37367;SDS011;23240;43.210;27.910;2023-02-03T06:58:55;8.02;;;2.60;;
37367;SDS011;23240;43.210;27.910;2023-02-03T07:01:21;6.55;;;2.28;;
37367;SDS011;23240;43.210;27.910;2023-02-03T07:03:47;5.03;;;2.42;;
37367;SDS011;23240;43.210;27.910;2023-02-03T07:06:13;5.50;;;2.50;;
37367;SDS011;23240;43.210;27.910;2023-02-03T07:08:39;6.22;;;2.58;;
37367;SDS011;23240;43.210;27.910;2023-02-03T07:11:05;1.98;;;1.38;;
37367;SDS011;23240;43.210;27.910;2023-02-03T07:13:31;6.65;;;2.63;;
37367;SDS011;23240;43.210;27.910;2023-02-03T07:15:56;1.90;;;1.73;;
37367;SDS011;23240;43.210;27.910;2023-02-03T07:18:22;2.63;;;2.17;;
37367;SDS011;23240;43.210;27.910;2023-02-03T07:20:49;4.13;;;1.98;;
37367;SDS011;23240;43.210;27.910;2023-02-03T07:23:15;4.15;;;1.52;;
37367;SDS011;23240;43.210;27.910;2023-02-03T07:25:41;3.97;;;1.85;;
37367;SDS011;23240;43.210;27.910;2023-02-03T07:28:06;4.65;;;1.83;;
37367;SDS011;23240;43.210;27.910;2023-02-03T07:30:32;7.82;;;1.85;;
37367;SDS011;23240;43.210;27.910;2023-02-03T07:32:58;6.47;;;2.72;;
37367;SDS011;23240;43.210;27.910;2023-02-03T07:35:23;7.78;;;2.22;;
37367;SDS011;23240;43.210;27.910;2023-02-03T07:37:49;2.33;;;1.30;;
37367;SDS011;23240;43.210;27.910;2023-02-03T07:40:15;3.28;;;2.03;;
37367;SDS011;23240;43.210;27.910;2023-02-03T07:42:41;4.97;;;2.67;;
37367;SDS011;23240;43.210;27.910;2023-02-03T07:45:08;3.72;;;2.33;;
37367;SDS011;23240;43.210;27.910;2023-02-03T07:47:35;1.90;;;1.45;;
37367;SDS011;23240;43.210;27.910;2023-02-03T07:50:00;2.95;;;1.73;;
37367;SDS011;23240;43.210;27.910;2023-02-03T07:52:26;5.55;;;2.55;;
37367;SDS011;23240;43.210;27.910;2023-02-03T07:54:51;3.75;;;2.47;;
37367;SDS011;23240;43.210;27.910;2023-02-03T07:57:17;5.97;;;2.53;;
37367;SDS011;23240;43.210;27.910;2023-02-03T07:59:42;4.55;;;2.38;;
37367;SDS011;23240;43.210;27.910;2023-02-03T08:02:08;7.40;;;2.38;;
37367;SDS011;23240;43.210;27.910;2023-02-03T08:04:35;7.57;;;2.47;;
37367;SDS011;23240;43.210;27.910;2023-02-03T08:07:01;2.33;;;1.83;;
37367;SDS011;23240;43.210;27.910;2023-02-03T08:09:27;7.45;;;2.25;;
37367;SDS011;23240;43.210;27.910;2023-02-03T08:11:53;5.85;;;2.45;;
37367;SDS011;23240;43.210;27.910;2023-02-03T08:14:18;7.90;;;2.78;;
37367;SDS011;23240;43.210;27.910;2023-02-03T08:16:43;8.20;;;3.15;;
37367;SDS011;23240;43.210;27.910;2023-02-03T08:19:10;3.78;;;1.60;;
37367;SDS011;23240;43.210;27.910;2023-02-03T08:21:36;4.70;;;2.33;;
37367;SDS011;23240;43.210;27.910;2023-02-03T08:24:02;7.90;;;2.42;;
37367;SDS011;23240;43.210;27.910;2023-02-03T08:26:27;5.65;;;2.45;;
37367;SDS011;23240;43.210;27.910;2023-02-03T08:28:53;4.40;;;1.65;;
37367;SDS011;23240;43.210;27.910;2023-02-03T08:31:18;5.78;;;2.30;;
37367;SDS011;23240;43.210;27.910;2023-02-03T08:33:44;10.23;;;2.65;;
37367;SDS011;23240;43.210;27.910;2023-02-03T08:36:09;4.05;;;2.42;;
37367;SDS011;23240;43.210;27.910;2023-02-03T08:38:35;6.03;;;2.83;;
37367;SDS011;23240;43.210;27.910;2023-02-03T08:41:06;8.95;;;2.88;;
37367;SDS011;23240;43.210;27.910;2023-02-03T08:43:33;5.80;;;2.33;;
37367;SDS011;23240;43.210;27.910;2023-02-03T08:46:02;8.73;;;3.72;;
37367;SDS011;23240;43.210;27.910;2023-02-03T08:48:29;6.68;;;3.15;;
37367;SDS011;23240;43.210;27.910;2023-02-03T08:50:55;7.55;;;2.92;;
37367;SDS011;23240;43.210;27.910;2023-02-03T08:53:20;6.93;;;2.67;;
37367;SDS011;23240;43.210;27.910;2023-02-03T08:55:46;9.02;;;2.67;;
37367;SDS011;23240;43.210;27.910;2023-02-03T08:58:11;6.60;;;2.90;;
37367;SDS011;23240;43.210;27.910;2023-02-03T09:00:37;5.63;;;2.28;;
37367;SDS011;23240;43.210;27.910;2023-02-03T09:03:02;3.50;;;1.48;;
37367;SDS011;23240;43.210;27.910;2023-02-03T09:05:31;9.38;;;2.25;;
37367;SDS011;23240;43.210;27.910;2023-02-03T09:07:57;6.50;;;2.42;;
37367;SDS011;23240;43.210;27.910;2023-02-03T09:10:22;5.88;;;2.70;;
37367;SDS011;23240;43.210;27.910;2023-02-03T09:12:48;4.32;;;2.25;;
37367;SDS011;23240;43.210;27.910;2023-02-03T09:15:13;5.57;;;2.15;;
37367;SDS011;23240;43.210;27.910;2023-02-03T09:17:39;5.95;;;3.00;;
37367;SDS011;23240;43.210;27.910;2023-02-03T09:20:05;2.33;;;1.92;;
37367;SDS011;23240;43.210;27.910;2023-02-03T09:22:31;2.88;;;1.35;;
37367;SDS011;23240;43.210;27.910;2023-02-03T09:24:57;5.38;;;2.03;;
37367;SDS011;23240;43.210;27.910;2023-02-03T09:27:22;6.88;;;2.25;;
37367;SDS011;23240;43.210;27.910;2023-02-03T09:29:48;4.65;;;1.40;;
37367;SDS011;23240;43.210;27.910;2023-02-03T09:32:13;6.35;;;2.28;;
37367;SDS011;23240;43.210;27.910;2023-02-03T09:34:38;4.60;;;2.10;;
37367;SDS011;23240;43.210;27.910;2023-02-03T09:37:05;6.30;;;2.65;;
37367;SDS011;23240;43.210;27.910;2023-02-03T09:39:31;3.35;;;2.28;;
37367;SDS011;23240;43.210;27.910;2023-02-03T09:47:28;6.40;;;2.97;;
37367;SDS011;23240;43.210;27.910;2023-02-03T09:50:02;5.57;;;2.28;;
37367;SDS011;23240;43.210;27.910;2023-02-03T09:52:43;4.13;;;1.98;;
37367;SDS011;23240;43.210;27.910;2023-02-03T09:58:11;4.97;;;2.38;;
37367;SDS011;23240;43.210;27.910;2023-02-03T10:00:47;11.02;;;2.60;;
37367;SDS011;23240;43.210;27.910;2023-02-03T10:11:32;9.07;;;2.65;;
37367;SDS011;23240;43.210;27.910;2023-02-03T10:19:50;2.00;;;1.55;;
37367;SDS011;23240;43.210;27.910;2023-02-03T10:22:24;4.13;;;1.77;;
37367;SDS011;23240;43.210;27.910;2023-02-03T10:25:06;2.03;;;1.20;;
37367;SDS011;23240;43.210;27.910;2023-02-03T10:27:38;4.13;;;1.88;;
37367;SDS011;23240;43.210;27.910;2023-02-03T10:32:34;2.47;;;1.60;;
37367;SDS011;23240;43.210;27.910;2023-02-03T10:35:01;2.17;;;1.10;;
37367;SDS011;23240;43.210;27.910;2023-02-03T10:39:52;4.07;;;1.60;;
37367;SDS011;23240;43.210;27.910;2023-02-03T10:42:19;1.40;;;1.02;;
37367;SDS011;23240;43.210;27.910;2023-02-03T10:44:52;7.13;;;1.50;;
37367;SDS011;23240;43.210;27.910;2023-02-03T10:50:01;1.90;;;1.17;;
37367;SDS011;23240;43.210;27.910;2023-02-03T10:52:33;3.65;;;1.60;;
37367;SDS011;23240;43.210;27.910;2023-02-03T10:55:45;3.60;;;1.83;;
37367;SDS011;23240;43.210;27.910;2023-02-03T10:57:47;2.63;;;1.77;;
37367;SDS011;23240;43.210;27.910;2023-02-03T11:00:22;4.50;;;2.05;;
37367;SDS011;23240;43.210;27.910;2023-02-03T11:02:57;5.18;;;1.63;;
37367;SDS011;23240;43.210;27.910;2023-02-03T11:05:27;2.58;;;1.25;;
37367;SDS011;23240;43.210;27.910;2023-02-03T11:07:53;6.13;;;1.60;;
37367;SDS011;23240;43.210;27.910;2023-02-03T11:18:26;3.70;;;1.77;;
37367;SDS011;23240;43.210;27.910;2023-02-03T11:21:08;1.58;;;1.08;;
37367;SDS011;23240;43.210;27.910;2023-02-03T11:23:37;5.45;;;2.08;;
37367;SDS011;23240;43.210;27.910;2023-02-03T11:26:11;3.03;;;1.65;;
37367;SDS011;23240;43.210;27.910;2023-02-03T11:28:43;5.20;;;1.65;;
37367;SDS011;23240;43.210;27.910;2023-02-03T11:31:32;5.25;;;2.08;;
37367;SDS011;23240;43.210;27.910;2023-02-03T11:34:00;1.58;;;1.48;;
37367;SDS011;23240;43.210;27.910;2023-02-03T11:36:29;7.53;;;2.30;;
37367;SDS011;23240;43.210;27.910;2023-02-03T11:39:10;3.90;;;2.00;;
37367;SDS011;23240;43.210;27.910;2023-02-03T11:41:51;2.05;;;1.40;;
37367;SDS011;23240;43.210;27.910;2023-02-03T11:44:26;3.40;;;1.92;;
37367;SDS011;23240;43.210;27.910;2023-02-03T11:47:01;2.75;;;1.67;;
37367;SDS011;23240;43.210;27.910;2023-02-03T11:52:25;6.68;;;1.92;;
37367;SDS011;23240;43.210;27.910;2023-02-03T11:57:48;3.03;;;1.98;;
37367;SDS011;23240;43.210;27.910;2023-02-03T12:05:40;2.42;;;1.95;;
37367;SDS011;23240;43.210;27.910;2023-02-03T12:08:17;4.40;;;2.10;;
37367;SDS011;23240;43.210;27.910;2023-02-03T12:10:55;3.13;;;1.38;;
37367;SDS011;23240;43.210;27.910;2023-02-03T12:13:34;1.52;;;1.15;;
37367;SDS011;23240;43.210;27.910;2023-02-03T12:21:41;3.88;;;1.70;;
37367;SDS011;23240;43.210;27.910;2023-02-03T12:24:31;5.25;;;2.45;;
37367;SDS011;23240;43.210;27.910;2023-02-03T12:29:42;4.70;;;2.08;;
37367;SDS011;23240;43.210;27.910;2023-02-03T12:35:05;4.85;;;1.85;;
37367;SDS011;23240;43.210;27.910;2023-02-03T12:37:53;4.93;;;2.38;;
37367;SDS011;23240;43.210;27.910;2023-02-03T12:40:45;3.05;;;1.25;;
37367;SDS011;23240;43.210;27.910;2023-02-03T12:51:47;7.30;;;2.65;;
37367;SDS011;23240;43.210;27.910;2023-02-03T12:59:53;3.63;;;2.15;;
37367;SDS011;23240;43.210;27.910;2023-02-03T13:02:28;5.85;;;1.35;;
37367;SDS011;23240;43.210;27.910;2023-02-03T13:05:00;5.57;;;2.58;;
37367;SDS011;23240;43.210;27.910;2023-02-03T13:07:42;4.32;;;2.38;;
37367;SDS011;23240;43.210;27.910;2023-02-03T13:10:17;10.32;;;2.03;;
37367;SDS011;23240;43.210;27.910;2023-02-03T13:12:52;3.90;;;2.10;;
37367;SDS011;23240;43.210;27.910;2023-02-03T13:15:30;5.35;;;1.67;;
37367;SDS011;23240;43.210;27.910;2023-02-03T13:18:20;4.65;;;1.50;;
37367;SDS011;23240;43.210;27.910;2023-02-03T13:20:52;2.83;;;2.08;;
37367;SDS011;23240;43.210;27.910;2023-02-03T13:23:18;3.67;;;1.98;;
37367;SDS011;23240;43.210;27.910;2023-02-03T13:37:06;4.45;;;1.98;;
37367;SDS011;23240;43.210;27.910;2023-02-03T13:42:45;8.48;;;2.92;;
37367;SDS011;23240;43.210;27.910;2023-02-03T13:47:50;7.53;;;3.13;;
37367;SDS011;23240;43.210;27.910;2023-02-03T13:50:22;9.88;;;2.55;;
37367;SDS011;23240;43.210;27.910;2023-02-03T13:55:25;5.40;;;2.63;;
37367;SDS011;23240;43.210;27.910;2023-02-03T13:58:01;6.43;;;2.50;;
37367;SDS011;23240;43.210;27.910;2023-02-03T14:05:51;14.07;;;4.85;;
37367;SDS011;23240;43.210;27.910;2023-02-03T14:16:50;7.20;;;3.38;;
37367;SDS011;23240;43.210;27.910;2023-02-03T14:21:52;6.80;;;3.58;;
37367;SDS011;23240;43.210;27.910;2023-02-03T14:24:28;9.07;;;3.55;;
37367;SDS011;23240;43.210;27.910;2023-02-03T14:27:01;7.60;;;3.30;;
37367;SDS011;23240;43.210;27.910;2023-02-03T14:29:30;9.20;;;3.70;;
37367;SDS011;23240;43.210;27.910;2023-02-03T14:31:59;4.07;;;2.60;;
37367;SDS011;23240;43.210;27.910;2023-02-03T14:37:13;5.22;;;2.28;;
37367;SDS011;23240;43.210;27.910;2023-02-03T14:42:23;4.13;;;2.15;;
37367;SDS011;23240;43.210;27.910;2023-02-03T14:47:48;5.05;;;1.88;;
37367;SDS011;23240;43.210;27.910;2023-02-03T14:53:06;4.75;;;2.60;;
37367;SDS011;23240;43.210;27.910;2023-02-03T14:55:41;6.82;;;2.67;;
37367;SDS011;23240;43.210;27.910;2023-02-03T14:58:19;7.53;;;2.72;;
37367;SDS011;23240;43.210;27.910;2023-02-03T15:00:46;9.80;;;2.97;;
37367;SDS011;23240;43.210;27.910;2023-02-03T15:03:14;7.78;;;3.05;;
37367;SDS011;23240;43.210;27.910;2023-02-03T15:10:58;9.23;;;3.70;;
37367;SDS011;23240;43.210;27.910;2023-02-03T15:15:58;6.68;;;3.13;;
37367;SDS011;23240;43.210;27.910;2023-02-03T15:18:35;9.32;;;3.10;;
37367;SDS011;23240;43.210;27.910;2023-02-03T15:21:01;8.50;;;3.60;;
37367;SDS011;23240;43.210;27.910;2023-02-03T15:23:29;12.68;;;4.10;;
37367;SDS011;23240;43.210;27.910;2023-02-03T15:26:12;8.45;;;3.42;;
37367;SDS011;23240;43.210;27.910;2023-02-03T15:28:39;14.02;;;4.00;;
37367;SDS011;23240;43.210;27.910;2023-02-03T15:31:16;8.85;;;2.78;;
37367;SDS011;23240;43.210;27.910;2023-02-03T15:33:47;5.53;;;2.50;;
37367;SDS011;23240;43.210;27.910;2023-02-03T15:36:16;5.50;;;2.60;;
37367;SDS011;23240;43.210;27.910;2023-02-03T15:38:51;4.05;;;2.22;;
37367;SDS011;23240;43.210;27.910;2023-02-03T15:41:25;3.17;;;1.52;;
37367;SDS011;23240;43.210;27.910;2023-02-03T15:43:52;3.38;;;1.52;;
37367;SDS011;23240;43.210;27.910;2023-02-03T15:48:57;2.95;;;1.85;;
37367;SDS011;23240;43.210;27.910;2023-02-03T15:51:35;5.97;;;2.22;;
37367;SDS011;23240;43.210;27.910;2023-02-03T15:54:19;4.65;;;2.47;;
37367;SDS011;23240;43.210;27.910;2023-02-03T15:56:57;3.63;;;1.95;;
37367;SDS011;23240;43.210;27.910;2023-02-03T15:59:33;3.38;;;2.03;;
37367;SDS011;23240;43.210;27.910;2023-02-03T16:02:05;5.03;;;3.25;;
37367;SDS011;23240;43.210;27.910;2023-02-03T16:04:39;5.57;;;2.55;;
37367;SDS011;23240;43.210;27.910;2023-02-03T16:07:05;9.55;;;2.33;;
37367;SDS011;23240;43.210;27.910;2023-02-03T16:09:38;6.13;;;2.35;;
37367;SDS011;23240;43.210;27.910;2023-02-03T16:12:23;11.52;;;4.07;;
37367;SDS011;23240;43.210;27.910;2023-02-03T16:14:54;7.53;;;2.65;;
37367;SDS011;23240;43.210;27.910;2023-02-03T16:19:53;13.23;;;3.65;;
37367;SDS011;23240;43.210;27.910;2023-02-03T16:26:12;25.05;;;6.03;;
37367;SDS011;23240;43.210;27.910;2023-02-03T16:28:42;17.88;;;5.70;;
37367;SDS011;23240;43.210;27.910;2023-02-03T16:31:39;12.88;;;4.65;;
37367;SDS011;23240;43.210;27.910;2023-02-03T16:34:26;14.35;;;4.65;;
37367;SDS011;23240;43.210;27.910;2023-02-03T16:37:32;12.05;;;4.60;;
37367;SDS011;23240;43.210;27.910;2023-02-03T16:40:26;16.25;;;4.97;;
37367;SDS011;23240;43.210;27.910;2023-02-03T16:43:11;18.15;;;6.07;;
37367;SDS011;23240;43.210;27.910;2023-02-03T16:45:57;23.10;;;7.57;;
37367;SDS011;23240;43.210;27.910;2023-02-03T16:48:42;20.17;;;5.07;;
37367;SDS011;23240;43.210;27.910;2023-02-03T16:51:37;16.40;;;6.68;;
37367;SDS011;23240;43.210;27.910;2023-02-03T16:54:05;19.15;;;6.43;;
37367;SDS011;23240;43.210;27.910;2023-02-03T16:56:31;16.83;;;5.85;;
37367;SDS011;23240;43.210;27.910;2023-02-03T16:58:56;15.93;;;5.85;;
37367;SDS011;23240;43.210;27.910;2023-02-03T17:01:22;21.27;;;4.82;;
37367;SDS011;23240;43.210;27.910;2023-02-03T17:03:47;15.10;;;5.75;;
37367;SDS011;23240;43.210;27.910;2023-02-03T17:06:13;16.08;;;5.82;;
37367;SDS011;23240;43.210;27.910;2023-02-03T17:08:39;12.68;;;4.85;;
37367;SDS011;23240;43.210;27.910;2023-02-03T17:11:06;15.45;;;5.05;;
37367;SDS011;23240;43.210;27.910;2023-02-03T17:13:35;12.75;;;4.32;;
37367;SDS011;23240;43.210;27.910;2023-02-03T17:16:05;17.17;;;5.78;;
37367;SDS011;23240;43.210;27.910;2023-02-03T17:18:32;14.85;;;5.78;;
37367;SDS011;23240;43.210;27.910;2023-02-03T17:21:02;17.35;;;5.95;;
37367;SDS011;23240;43.210;27.910;2023-02-03T17:23:29;14.40;;;5.57;;
37367;SDS011;23240;43.210;27.910;2023-02-03T17:25:55;20.23;;;6.70;;